Time;durP1;ratioP1;P1;durP2;ratioP2;P2;SDS_P1;SDS_P2;PMS_P1;PMS_P2;Temp;Humidity;BMP_temperature;BMP_pressure;BME280_temperature;BME280_humidity;BME280_pressure;Samples;Min_cycle;Max_cycle;Signal;HPM_P1;HPM_P2
2023/07/23 00:02:19;;;;;;;4.27;3.57;;;19.00;99.90;;;;;;5031887;28;20260;-69
2023/07/23 00:04:44;;;;;;;3.87;3.57;;;19.00;99.90;;;;;;5031973;28;20177;-67
2023/07/23 00:07:10;;;;;;;6.00;3.67;;;19.00;99.90;;;;;;5031890;28;20647;-68
2023/07/23 00:09:36;;;;;;;4.23;3.83;;;19.00;99.90;;;;;;5031653;28;20220;-68
2023/07/23 00:12:01;;;;;;;4.43;4.03;;;18.90;99.90;;;;;;5031775;28;20177;-68
2023/07/23 00:14:27;;;;;;;4.87;3.87;;;18.80;99.90;;;;;;5031816;28;20208;-67
2023/07/23 00:16:53;;;;;;;4.87;3.97;;;18.80;99.90;;;;;;5031883;28;20763;-68
2023/07/23 00:19:21;;;;;;;3.10;2.90;;;18.70;99.90;;;;;;5013840;28;20655;-69
2023/07/23 00:21:48;;;;;;;4.33;3.93;;;18.70;99.90;;;;;;5035387;28;20243;-68
2023/07/23 00:24:19;;;;;;;3.73;3.43;;;18.60;99.90;;;;;;5036003;28;20413;-68
2023/07/23 00:26:45;;;;;;;3.90;3.60;;;18.70;99.90;;;;;;5035970;28;20413;-67
2023/07/23 00:29:10;;;;;;;4.63;4.07;;;18.70;99.90;;;;;;5035437;28;20424;-67
2023/07/23 00:31:36;;;;;;;4.40;4.00;;;18.70;99.90;;;;;;5035747;28;20170;-68
2023/07/23 00:34:03;;;;;;;3.90;3.47;;;18.60;99.90;;;;;;5035641;28;20213;-67
2023/07/23 00:36:29;;;;;;;4.60;3.37;;;18.60;99.90;;;;;;5035643;28;20420;-68
2023/07/23 00:38:54;;;;;;;4.63;3.97;;;18.60;99.90;;;;;;5035248;28;20423;-68
2023/07/23 00:41:20;;;;;;;5.43;3.43;;;18.60;99.90;;;;;;5035400;28;20509;-67
2023/07/23 00:43:45;;;;;;;3.40;3.10;;;18.60;99.90;;;;;;5035346;28;20580;-68
2023/07/23 00:46:11;;;;;;;4.17;3.77;;;18.50;99.90;;;;;;5035475;28;20174;-68
2023/07/23 00:48:37;;;;;;;3.90;3.50;;;18.50;99.90;;;;;;5035163;28;20266;-68
2023/07/23 00:51:03;;;;;;;4.60;4.13;;;18.50;99.90;;;;;;5035374;28;20444;-67
2023/07/23 00:53:29;;;;;;;4.60;4.20;;;18.50;99.90;;;;;;5035255;28;20190;-68
2023/07/23 00:55:55;;;;;;;3.43;3.23;;;18.50;99.90;;;;;;5035339;28;20221;-67
2023/07/23 00:58:21;;;;;;;4.60;4.20;;;18.50;99.90;;;;;;5034797;28;20194;-67
2023/07/23 01:00:46;;;;;;;3.87;3.50;;;18.50;99.90;;;;;;5035205;28;20470;-68
2023/07/23 01:03:12;;;;;;;5.13;3.87;;;18.50;99.90;;;;;;5035036;28;20247;-69
2023/07/23 01:05:44;;;;;;;4.40;4.00;;;18.50;99.90;;;;;;5035314;28;20224;-67
2023/07/23 01:08:10;;;;;;;3.30;3.00;;;18.50;99.90;;;;;;5034909;28;20197;-64
2023/07/23 01:10:36;;;;;;;3.93;3.63;;;18.50;99.90;;;;;;5034941;28;20730;-67
2023/07/23 01:13:02;;;;;;;4.23;3.90;;;18.40;99.90;;;;;;5034744;28;20457;-68
2023/07/23 01:15:28;;;;;;;5.53;3.60;;;18.40;99.90;;;;;;5035035;28;20181;-68
2023/07/23 01:17:56;;;;;;;3.53;3.23;;;18.40;99.90;;;;;;5034929;28;20807;-68
2023/07/23 01:20:22;;;;;;;3.30;3.00;;;18.40;99.90;;;;;;5034637;28;20173;-68
2023/07/23 01:22:47;;;;;;;3.73;3.53;;;18.40;99.90;;;;;;5034571;28;20456;-67
2023/07/23 01:25:13;;;;;;;3.63;3.43;;;18.30;99.90;;;;;;5034802;28;20190;-69
2023/07/23 01:27:38;;;;;;;3.97;3.57;;;18.30;99.90;;;;;;5034650;28;20836;-68
2023/07/23 01:30:08;;;;;;;4.47;3.70;;;18.30;99.90;;;;;;5034421;28;20254;-67
2023/07/23 01:32:34;;;;;;;4.73;4.33;;;18.30;99.90;;;;;;5033638;28;20259;-68
2023/07/23 01:35:09;;;;;;;4.63;3.40;;;18.30;99.90;;;;;;5034755;28;20429;-69
2023/07/23 01:37:35;;;;;;;3.70;3.30;;;18.20;99.90;;;;;;5034524;28;20423;-68
2023/07/23 01:40:01;;;;;;;3.63;3.37;;;18.20;99.90;;;;;;5034175;28;20420;-68
2023/07/23 01:42:27;;;;;;;3.80;3.50;;;18.20;99.90;;;;;;5034294;28;20460;-67
2023/07/23 01:44:53;;;;;;;4.00;3.60;;;18.20;99.90;;;;;;5034364;28;20166;-67
2023/07/23 01:47:18;;;;;;;4.13;3.40;;;18.20;99.90;;;;;;5034321;28;21019;-68
2023/07/23 01:49:44;;;;;;;3.70;3.40;;;18.20;99.90;;;;;;5034125;28;20185;-68
2023/07/23 01:52:09;;;;;;;4.03;3.73;;;18.20;99.90;;;;;;5034139;28;20197;-67
2023/07/23 01:54:35;;;;;;;4.10;3.70;;;18.10;99.90;;;;;;5034260;28;20170;-68
2023/07/23 01:57:02;;;;;;;3.40;3.10;;;18.00;99.90;;;;;;5034276;28;20174;-67
2023/07/23 01:59:28;;;;;;;4.93;4.50;;;18.00;99.90;;;;;;5033788;28;20170;-68
2023/07/23 02:01:53;;;;;;;4.67;3.73;;;18.00;99.90;;;;;;5033944;28;20463;-67
2023/07/23 02:04:19;;;;;;;4.90;4.10;;;18.00;99.90;;;;;;5034038;28;20249;-67
2023/07/23 02:06:44;;;;;;;3.87;3.60;;;18.00;99.90;;;;;;5033951;28;20174;-68
2023/07/23 02:09:10;;;;;;;3.40;3.17;;;18.00;99.90;;;;;;5033601;28;20182;-67
2023/07/23 02:11:35;;;;;;;4.23;3.50;;;18.00;99.90;;;;;;5033981;28;20189;-68
2023/07/23 02:14:01;;;;;;;3.67;3.37;;;17.90;99.90;;;;;;5033763;28;20206;-69
2023/07/23 02:16:26;;;;;;;3.90;3.60;;;17.90;99.90;;;;;;5034008;28;20714;-68
2023/07/23 02:18:52;;;;;;;4.07;3.73;;;17.90;99.90;;;;;;5033503;28;20166;-67
2023/07/23 02:21:18;;;;;;;3.27;3.07;;;17.90;99.90;;;;;;5033720;28;20578;-68
2023/07/23 02:23:45;;;;;;;4.67;3.63;;;17.90;99.90;;;;;;5033504;28;20252;-68
2023/07/23 02:26:10;;;;;;;7.13;4.20;;;17.90;99.90;;;;;;5033618;28;20162;-68
2023/07/23 02:28:40;;;;;;;3.87;3.57;;;17.90;99.90;;;;;;5033275;28;20413;-69
2023/07/23 02:31:06;;;;;;;4.10;3.80;;;17.90;99.90;;;;;;5033495;28;20169;-69
2023/07/23 02:33:31;;;;;;;5.10;4.60;;;17.90;99.90;;;;;;5033459;28;20803;-69
2023/07/23 02:35:57;;;;;;;3.67;3.40;;;17.90;99.90;;;;;;5033410;28;20170;-68
2023/07/23 02:38:22;;;;;;;4.47;4.07;;;17.90;99.90;;;;;;5032974;28;20171;-69
2023/07/23 02:40:48;;;;;;;4.10;3.80;;;17.80;99.90;;;;;;5033534;28;20284;-68
2023/07/23 02:43:13;;;;;;;4.23;3.80;;;17.80;99.90;;;;;;5033203;28;20233;-68
2023/07/23 02:45:39;;;;;;;4.47;3.30;;;17.80;99.90;;;;;;5033273;28;20667;-68
2023/07/23 02:48:06;;;;;;;3.30;2.80;;;17.80;99.90;;;;;;5032751;28;20174;-67
2023/07/23 02:50:32;;;;;;;3.87;3.53;;;17.80;99.90;;;;;;5033025;28;20419;-68
2023/07/23 02:52:57;;;;;;;7.67;4.27;;;17.70;99.90;;;;;;5033297;28;20444;-68
2023/07/23 02:55:25;;;;;;;4.47;4.07;;;17.60;99.90;;;;;;5033161;28;20276;-68
2023/07/23 02:57:50;;;;;;;3.70;3.40;;;17.60;99.90;;;;;;5032976;28;20265;-68
2023/07/23 03:00:18;;;;;;;4.70;3.80;;;17.60;99.90;;;;;;5032814;28;20535;-68
2023/07/23 03:02:44;;;;;;;4.53;4.20;;;17.60;99.90;;;;;;5032734;28;20468;-67
2023/07/23 03:05:10;;;;;;;3.60;3.20;;;17.60;99.90;;;;;;5032848;28;20776;-68
2023/07/23 03:07:36;;;;;;;4.60;3.67;;;17.60;99.90;;;;;;5032836;28;20417;-69
2023/07/23 03:10:03;;;;;;;4.17;3.80;;;17.60;99.90;;;;;;5032583;28;20173;-68
2023/07/23 03:12:28;;;;;;;4.80;4.40;;;17.50;99.90;;;;;;5032524;28;20198;-68
2023/07/23 03:14:54;;;;;;;4.43;4.03;;;17.50;99.90;;;;;;5032762;28;20455;-68
2023/07/23 03:17:19;;;;;;;4.47;4.07;;;17.50;99.90;;;;;;5032699;28;20694;-68
2023/07/23 03:19:45;;;;;;;3.10;2.90;;;17.50;99.90;;;;;;5032310;28;20171;-67
2023/07/23 03:22:10;;;;;;;3.43;3.17;;;17.50;99.90;;;;;;5032423;28;20202;-69
2023/07/23 03:24:36;;;;;;;3.90;3.60;;;17.50;99.90;;;;;;5032544;28;20166;-68
2023/07/23 03:27:02;;;;;;;4.10;3.73;;;17.50;99.90;;;;;;5032498;28;20166;-66
2023/07/23 03:29:27;;;;;;;4.00;3.70;;;17.50;99.90;;;;;;5032520;28;20822;-68
2023/07/23 03:31:52;;;;;;;5.30;3.60;;;17.40;99.90;;;;;;5032247;28;20189;-68
2023/07/23 03:34:18;;;;;;;3.23;3.03;;;17.40;99.90;;;;;;5032336;28;20185;-68
2023/07/23 03:36:44;;;;;;;3.90;3.60;;;17.40;99.90;;;;;;5032505;28;20236;-69
2023/07/23 03:39:14;;;;;;;5.20;4.10;;;17.40;99.90;;;;;;5032012;28;20170;-67
2023/07/23 03:41:39;;;;;;;4.10;3.70;;;17.40;99.90;;;;;;5032407;28;20158;-68
2023/07/23 03:44:05;;;;;;;4.10;3.80;;;17.40;99.90;;;;;;5032197;28;20781;-68
2023/07/23 03:46:30;;;;;;;3.90;3.60;;;17.30;99.90;;;;;;5032160;28;20166;-68
2023/07/23 03:48:56;;;;;;;4.83;3.73;;;17.30;99.90;;;;;;5031787;28;20237;-67
2023/07/23 03:51:21;;;;;;;4.07;3.37;;;17.30;99.90;;;;;;5032068;28;20584;-68
2023/07/23 03:53:47;;;;;;;4.13;3.73;;;17.30;99.90;;;;;;5032030;28;20194;-67
2023/07/23 03:56:12;;;;;;;3.70;3.40;;;17.30;99.90;;;;;;5031678;28;20174;-67
2023/07/23 03:58:38;;;;;;;7.30;3.77;;;17.30;99.90;;;;;;5031777;28;20193;-68
2023/07/23 04:01:03;;;;;;;4.20;3.37;;;17.40;99.90;;;;;;5031933;28;20175;-68
2023/07/23 04:03:29;;;;;;;3.90;3.60;;;17.30;99.90;;;;;;5031867;28;20284;-66
2023/07/23 04:05:56;;;;;;;4.40;3.70;;;17.40;99.90;;;;;;5031995;28;20275;-68
2023/07/23 04:08:22;;;;;;;4.30;3.90;;;17.40;99.90;;;;;;5031602;28;20206;-68
2023/07/23 04:10:47;;;;;;;4.40;4.00;;;17.40;99.90;;;;;;5031932;28;20511;-68
2023/07/23 04:13:13;;;;;;;4.87;3.00;;;17.30;99.90;;;;;;5031674;28;20206;-67
2023/07/23 04:15:38;;;;;;;4.43;4.03;;;17.40;99.90;;;;;;5031761;28;20179;-68
2023/07/23 04:18:13;;;;;;;9.33;3.77;;;17.40;99.90;;;;;;5031759;28;20182;-68
2023/07/23 04:20:39;;;;;;;4.70;4.07;;;17.40;99.90;;;;;;5031930;28;20216;-68
2023/07/23 04:23:05;;;;;;;4.07;3.70;;;17.40;99.90;;;;;;5031591;28;20464;-68
2023/07/23 04:25:31;;;;;;;5.60;4.30;;;17.40;99.90;;;;;;5031806;28;20423;-68
2023/07/23 04:27:56;;;;;;;3.93;3.63;;;17.50;99.90;;;;;;5031789;28;20177;-69
2023/07/23 04:30:26;;;;;;;4.60;4.00;;;17.50;99.90;;;;;;5031375;28;20910;-68
2023/07/23 04:32:51;;;;;;;5.40;4.07;;;17.60;99.90;;;;;;5031603;28;20675;-66
2023/07/23 04:35:17;;;;;;;4.37;3.83;;;17.70;99.90;;;;;;5031908;28;20421;-68
2023/07/23 04:37:42;;;;;;;4.07;3.77;;;17.80;99.90;;;;;;5031650;28;20174;-68
2023/07/23 04:40:08;;;;;;;4.13;3.80;;;17.90;99.90;;;;;;5031778;28;20170;-66
2023/07/23 04:42:34;;;;;;;4.50;4.10;;;18.00;99.90;;;;;;5031444;28;20213;-68
2023/07/23 04:44:59;;;;;;;3.80;3.50;;;18.20;99.90;;;;;;5031562;28;20166;-67
2023/07/23 04:47:25;;;;;;;4.37;3.80;;;18.20;99.90;;;;;;5031557;28;20187;-68
2023/07/23 04:49:50;;;;;;;5.03;4.53;;;18.10;99.90;;;;;;5031142;28;20166;-68
2023/07/23 04:52:17;;;;;;;4.10;3.70;;;18.20;99.90;;;;;;5031332;28;20190;-68
2023/07/23 04:54:42;;;;;;;3.90;3.60;;;18.20;99.90;;;;;;5013892;28;20186;-68
2023/07/23 04:57:08;;;;;;;4.53;4.10;;;18.20;99.90;;;;;;5031672;28;20804;-68
2023/07/23 04:59:33;;;;;;;4.90;4.40;;;18.10;99.90;;;;;;5031171;28;20174;-68
2023/07/23 05:02:00;;;;;;;3.37;3.07;;;18.10;99.90;;;;;;5031285;28;20240;-68
2023/07/23 05:04:25;;;;;;;4.07;3.67;;;18.20;99.90;;;;;;5031498;28;20171;-68
2023/07/23 05:06:50;;;;;;;4.67;3.47;;;18.30;99.90;;;;;;5031757;28;20439;-67
2023/07/23 05:09:16;;;;;;;3.03;2.80;;;18.60;99.90;;;;;;5034845;28;20174;-68
2023/07/23 05:11:41;;;;;;;5.20;4.70;;;18.70;99.90;;;;;;5035218;28;20167;-68
2023/07/23 05:14:07;;;;;;;3.87;3.43;;;18.80;99.90;;;;;;5035211;28;20593;-67
2023/07/23 05:16:32;;;;;;;4.23;3.43;;;19.00;99.90;;;;;;5035014;28;20247;-68
2023/07/23 05:18:58;;;;;;;2.80;2.60;;;19.20;99.90;;;;;;5034704;28;20167;-67
2023/07/23 05:21:23;;;;;;;4.00;3.67;;;19.30;99.90;;;;;;5034841;28;20223;-68
2023/07/23 05:23:49;;;;;;;4.10;3.70;;;19.40;99.90;;;;;;5034657;28;20254;-68
2023/07/23 05:26:14;;;;;;;3.90;3.50;;;19.50;99.90;;;;;;5035011;28;20321;-67
2023/07/23 05:28:40;;;;;;;4.27;3.97;;;19.60;99.90;;;;;;5034564;28;20174;-67
2023/07/23 05:31:05;;;;;;;3.87;3.57;;;19.80;99.90;;;;;;5034712;28;20640;-68
2023/07/23 05:33:31;;;;;;;3.97;3.57;;;19.90;99.90;;;;;;5034579;28;20191;-67
2023/07/23 05:35:57;;;;;;;4.17;3.87;;;20.00;99.90;;;;;;5034565;28;20166;-67
2023/07/23 05:38:22;;;;;;;4.13;3.73;;;20.20;99.90;;;;;;5034482;28;20529;-67
2023/07/23 05:40:57;;;;;;;4.23;3.70;;;20.30;99.90;;;;;;5034752;28;20595;-67
2023/07/23 05:43:23;;;;;;;4.07;3.13;;;20.50;99.90;;;;;;5034324;28;20210;-67
2023/07/23 05:45:49;;;;;;;3.47;3.17;;;20.60;99.90;;;;;;5034478;28;20417;-67
2023/07/23 05:48:14;;;;;;;3.37;3.17;;;20.80;99.90;;;;;;5034080;28;20232;-67
2023/07/23 05:50:40;;;;;;;3.73;3.30;;;20.90;99.90;;;;;;5034326;28;20174;-68
2023/07/23 05:53:05;;;;;;;3.93;3.63;;;21.10;99.90;;;;;;5034265;28;20224;-67
2023/07/23 05:55:31;;;;;;;3.37;3.00;;;21.20;99.90;;;;;;5034398;28;20650;-67
2023/07/23 05:57:56;;;;;;;3.77;3.47;;;21.40;99.90;;;;;;5034299;28;20177;-67
2023/07/23 06:00:22;;;;;;;3.53;3.23;;;21.70;99.90;;;;;;5033909;28;20200;-67
2023/07/23 06:02:47;;;;;;;4.00;3.60;;;21.80;99.90;;;;;;5033923;28;20206;-67
2023/07/23 06:05:13;;;;;;;3.80;3.50;;;22.00;99.90;;;;;;5034055;28;20202;-68
2023/07/23 06:07:38;;;;;;;4.30;3.80;;;22.20;99.50;;;;;;5033959;28;20268;-67
2023/07/23 06:10:05;;;;;;;4.10;3.80;;;22.60;98.00;;;;;;5033825;28;20171;-68
2023/07/23 06:12:30;;;;;;;2.97;2.77;;;22.80;96.80;;;;;;5033817;28;20731;-67
2023/07/23 06:14:56;;;;;;;3.20;3.00;;;23.20;95.50;;;;;;5033884;28;20496;-67
2023/07/23 06:17:22;;;;;;;3.50;3.20;;;23.40;93.70;;;;;;5033796;28;20170;-68
2023/07/23 06:19:48;;;;;;;2.90;2.70;;;23.50;92.60;;;;;;5033277;28;20432;-68
2023/07/23 06:22:13;;;;;;;3.73;3.43;;;23.40;92.50;;;;;;5033775;28;20206;-68
2023/07/23 06:24:39;;;;;;;4.23;3.83;;;23.40;92.50;;;;;;5033695;28;20170;-68
2023/07/23 06:27:05;;;;;;;3.20;3.00;;;23.40;92.50;;;;;;5033727;28;20620;-67
2023/07/23 06:29:30;;;;;;;3.63;3.37;;;23.30;92.10;;;;;;5033362;28;20174;-68
2023/07/23 06:31:57;;;;;;;3.40;3.10;;;23.20;92.20;;;;;;5033434;28;20221;-68
2023/07/23 06:34:23;;;;;;;3.50;3.30;;;23.20;92.40;;;;;;5033469;28;20254;-67
2023/07/23 06:36:48;;;;;;;3.93;3.60;;;23.30;92.20;;;;;;5033404;28;20557;-67
2023/07/23 06:39:14;;;;;;;3.40;3.10;;;23.20;91.60;;;;;;5033353;28;20193;-68
2023/07/23 06:41:40;;;;;;;3.83;3.53;;;23.20;91.60;;;;;;5033393;28;20189;-68
2023/07/23 06:44:06;;;;;;;4.40;4.03;;;23.10;91.40;;;;;;5033285;28;20190;-68
2023/07/23 06:46:31;;;;;;;3.57;3.23;;;23.10;91.60;;;;;;5033320;28;20417;-68
2023/07/23 06:48:57;;;;;;;3.50;3.20;;;23.10;91.80;;;;;;5032928;28;20170;-67
2023/07/23 06:51:22;;;;;;;3.47;3.27;;;23.40;91.90;;;;;;5033174;28;20534;-68
2023/07/23 06:53:48;;;;;;;3.70;2.83;;;23.50;90.30;;;;;;5033301;28;20191;-68
2023/07/23 06:56:14;;;;;;;4.00;3.70;;;23.40;89.60;;;;;;5033077;28;20223;-68
2023/07/23 06:58:39;;;;;;;4.43;4.03;;;23.70;89.00;;;;;;5032704;28;20170;-68
2023/07/23 07:01:08;;;;;;;4.43;2.87;;;24.00;88.60;;;;;;5033025;28;20177;-68
2023/07/23 07:03:34;;;;;;;3.73;3.43;;;24.30;84.90;;;;;;5032845;28;20267;-68
2023/07/23 07:06:00;;;;;;;3.90;3.60;;;24.60;84.00;;;;;;5032969;28;20451;-68
2023/07/23 07:08:27;;;;;;;3.57;3.00;;;24.80;83.10;;;;;;5032602;28;20178;-67
2023/07/23 07:11:00;;;;;;;6.80;3.03;;;24.90;79.80;;;;;;5032876;28;20408;-68
2023/07/23 07:13:27;;;;;;;3.53;3.23;;;24.90;79.40;;;;;;5032510;28;20460;-67
2023/07/23 07:15:53;;;;;;;4.30;4.00;;;25.00;79.30;;;;;;5032619;28;20428;-68
2023/07/23 07:18:18;;;;;;;2.80;2.60;;;25.20;77.80;;;;;;5032469;28;20413;-68
2023/07/23 07:20:44;;;;;;;5.00;3.40;;;25.20;76.90;;;;;;5032876;28;20182;-67
2023/07/23 07:23:09;;;;;;;3.33;3.03;;;25.20;76.60;;;;;;5032496;28;20256;-68
2023/07/23 07:25:36;;;;;;;3.83;3.50;;;25.20;75.50;;;;;;5032627;28;20228;-68
2023/07/23 07:28:01;;;;;;;4.00;3.67;;;25.30;76.40;;;;;;5032538;28;20170;-68
2023/07/23 07:30:27;;;;;;;3.00;2.70;;;25.70;74.80;;;;;;5031540;28;20902;-68
2023/07/23 07:32:53;;;;;;;3.90;2.70;;;25.80;75.00;;;;;;5032454;28;20197;-68
2023/07/23 07:35:19;;;;;;;4.17;3.20;;;26.30;72.60;;;;;;5032654;28;20178;-68
2023/07/23 07:37:45;;;;;;;3.97;3.63;;;26.30;72.60;;;;;;5032440;28;20219;-68
2023/07/23 07:40:13;;;;;;;4.30;3.90;;;26.30;71.90;;;;;;5032066;28;20449;-68
2023/07/23 07:42:38;;;;;;;3.50;3.20;;;26.10;72.00;;;;;;5032119;28;20496;-68
2023/07/23 07:45:05;;;;;;;3.57;2.90;;;26.40;73.70;;;;;;5032198;28;20456;-68
2023/07/23 07:47:30;;;;;;;4.00;3.60;;;26.80;71.00;;;;;;5032153;28;20632;-68
2023/07/23 07:49:56;;;;;;;4.07;3.00;;;26.80;70.40;;;;;;5031965;28;20474;-68
2023/07/23 07:52:21;;;;;;;4.30;3.27;;;26.40;70.20;;;;;;5032072;28;20702;-68
2023/07/23 07:54:47;;;;;;;3.57;3.27;;;26.10;72.00;;;;;;5032152;28;20187;-68
2023/07/23 07:57:13;;;;;;;3.43;2.90;;;25.80;72.40;;;;;;5032125;28;20177;-67
2023/07/23 07:59:38;;;;;;;5.40;4.77;;;25.40;72.40;;;;;;5031782;28;20170;-68
2023/07/23 08:02:04;;;;;;;5.67;5.00;;;25.10;73.00;;;;;;5031847;28;20474;-67
2023/07/23 08:04:30;;;;;;;3.43;3.13;;;25.20;74.00;;;;;;5032059;28;20167;-67
2023/07/23 08:06:57;;;;;;;3.43;3.13;;;25.60;73.20;;;;;;5031986;28;20942;-67
2023/07/23 08:09:24;;;;;;;4.47;3.63;;;25.80;72.20;;;;;;5031832;28;20595;-68
2023/07/23 08:11:50;;;;;;;3.30;3.00;;;26.20;72.30;;;;;;5031858;28;20479;-68
2023/07/23 08:14:18;;;;;;;3.90;3.50;;;26.90;70.50;;;;;;5031639;28;20436;-68
2023/07/23 08:16:44;;;;;;;4.47;4.17;;;26.90;69.00;;;;;;5032160;28;20416;-68
2023/07/23 08:19:10;;;;;;;3.80;3.50;;;26.90;69.10;;;;;;5031562;28;20416;-68
2023/07/23 08:21:36;;;;;;;4.80;3.23;;;26.90;69.10;;;;;;5031932;28;20178;-68
2023/07/23 08:24:02;;;;;;;2.90;2.70;;;26.60;69.70;;;;;;5031707;28;20258;-68
2023/07/23 08:26:32;;;;;;;5.90;3.33;;;26.40;70.50;;;;;;5031850;28;20261;-68
2023/07/23 08:29:05;;;;;;;3.10;2.80;;;26.40;70.30;;;;;;5031407;28;20421;-68
2023/07/23 08:31:32;;;;;;;2.57;2.37;;;26.60;70.00;;;;;;5031743;28;20938;-68
2023/07/23 08:34:01;;;;;;;2.77;2.57;;;26.60;68.90;;;;;;5031716;28;20961;-68
2023/07/23 08:36:27;;;;;;;2.90;2.60;;;26.50;69.50;;;;;;5031689;28;20421;-68
2023/07/23 08:38:53;;;;;;;4.30;3.23;;;26.40;69.10;;;;;;5031511;28;20918;-67
2023/07/23 08:41:45;;;;;;;4.60;2.53;;;26.20;69.70;;;;;;5032900;28;20170;-68
2023/07/23 08:44:44;;;;;;;2.43;2.23;;;26.40;69.50;;;;;;5035686;28;20181;-68
2023/07/23 08:47:14;;;;;;;2.60;2.40;;;26.80;69.60;;;;;;5035727;28;20421;-68
2023/07/23 08:49:41;;;;;;;5.23;2.33;;;27.00;68.40;;;;;;5035220;28;20412;-68
2023/07/23 08:52:09;;;;;;;3.07;2.87;;;27.20;68.20;;;;;;5035591;28;20440;-68
2023/07/23 08:54:36;;;;;;;2.47;2.23;;;27.00;68.10;;;;;;5035256;28;20456;-68
2023/07/23 08:57:03;;;;;;;2.90;2.70;;;26.70;67.30;;;;;;5035307;28;20424;-68
2023/07/23 08:59:31;;;;;;;3.10;2.80;;;26.40;69.10;;;;;;5035022;28;20791;-67
2023/07/23 09:01:57;;;;;;;2.77;2.47;;;26.40;68.80;;;;;;5035153;28;20523;-68
2023/07/23 09:04:22;;;;;;;2.90;2.43;;;26.40;68.40;;;;;;5035178;28;20766;-68
2023/07/23 09:06:51;;;;;;;2.77;2.63;;;26.50;68.40;;;;;;5035160;28;20578;-68
2023/07/23 09:09:16;;;;;;;2.70;2.50;;;26.50;67.70;;;;;;5034911;28;20170;-68
2023/07/23 09:11:42;;;;;;;4.13;2.40;;;26.40;68.90;;;;;;5034982;28;20420;-67
2023/07/23 09:14:08;;;;;;;3.93;2.60;;;26.40;68.20;;;;;;5034844;28;20238;-68
2023/07/23 09:16:38;;;;;;;2.50;2.30;;;26.50;67.80;;;;;;5035051;28;20440;-68
2023/07/23 09:19:04;;;;;;;2.47;2.37;;;26.40;67.30;;;;;;5034626;28;20174;-68
2023/07/23 09:21:30;;;;;;;1.93;1.83;;;26.50;67.40;;;;;;5034940;28;20417;-68
2023/07/23 09:23:57;;;;;;;2.83;2.63;;;26.40;66.40;;;;;;5034677;28;20465;-68
2023/07/23 09:26:27;;;;;;;3.47;2.50;;;26.70;66.30;;;;;;5034750;28;20658;-68
2023/07/23 09:28:56;;;;;;;2.50;2.30;;;27.10;64.30;;;;;;5034456;28;20946;-68
2023/07/23 09:31:31;;;;;;;2.00;1.90;;;27.50;63.30;;;;;;5034631;28;21005;-68
2023/07/23 09:33:59;;;;;;;2.43;2.23;;;27.80;61.80;;;;;;5034634;28;21030;-68
2023/07/23 09:36:26;;;;;;;2.20;2.10;;;27.80;60.40;;;;;;5034589;28;20436;-68
2023/07/23 09:38:59;;;;;;;2.30;2.13;;;28.10;60.00;;;;;;5034463;28;20425;-68
2023/07/23 09:41:31;;;;;;;2.30;2.20;;;28.60;58.60;;;;;;5034476;28;20440;-68
2023/07/23 09:44:06;;;;;;;4.93;2.30;;;28.50;58.30;;;;;;5034403;28;21001;-67
2023/07/23 09:46:32;;;;;;;2.43;2.30;;;28.00;57.90;;;;;;5034717;28;20466;-68
2023/07/23 09:48:58;;;;;;;2.87;2.67;;;28.00;58.20;;;;;;5034123;28;20417;-68
2023/07/23 09:51:24;;;;;;;2.37;2.27;;;27.80;58.10;;;;;;5034350;28;20240;-67
2023/07/23 09:53:50;;;;;;;3.50;1.90;;;27.80;58.80;;;;;;5033452;28;20835;-68
2023/07/23 09:56:17;;;;;;;2.37;2.20;;;28.20;57.80;;;;;;5034137;28;20500;-68
2023/07/23 09:58:49;;;;;;;2.63;2.43;;;28.60;57.80;;;;;;5034131;28;20739;-68
2023/07/23 10:01:16;;;;;;;2.13;2.00;;;29.40;57.40;;;;;;5034167;28;20457;-68
2023/07/23 10:03:44;;;;;;;3.10;2.60;;;29.60;55.90;;;;;;5034019;28;20989;-68
2023/07/23 10:06:11;;;;;;;2.83;2.63;;;30.30;54.50;;;;;;5034215;28;20863;-68
2023/07/23 10:08:44;;;;;;;2.33;2.23;;;30.30;53.40;;;;;;5034042;28;20941;-68
2023/07/23 10:11:14;;;;;;;2.90;2.67;;;29.50;53.00;;;;;;5033926;28;20910;-68
2023/07/23 10:13:41;;;;;;;3.03;2.83;;;29.50;52.90;;;;;;5033879;28;20479;-68
2023/07/23 10:16:09;;;;;;;2.80;2.53;;;29.80;53.10;;;;;;5033949;28;20416;-68
2023/07/23 10:18:40;;;;;;;8.70;3.53;;;30.30;51.90;;;;;;5033473;28;20482;-68
2023/07/23 10:21:07;;;;;;;3.10;2.90;;;30.30;51.60;;;;;;5033855;28;20425;-68
2023/07/23 10:23:33;;;;;;;2.77;2.57;;;30.30;51.30;;;;;;5033576;28;21156;-68
2023/07/23 10:26:20;;;;;;;2.50;2.30;;;29.80;51.40;;;;;;5033690;28;20428;-68
2023/07/23 10:28:45;;;;;;;2.60;2.40;;;29.60;52.10;;;;;;5033443;28;20420;-68
2023/07/23 10:31:22;;;;;;;2.87;2.67;;;30.00;51.70;;;;;;5033725;28;20426;-68
2023/07/23 10:33:50;;;;;;;3.07;2.77;;;30.70;50.90;;;;;;5033482;28;20189;-68
2023/07/23 10:36:15;;;;;;;2.90;2.70;;;31.40;50.30;;;;;;5033548;28;20420;-68
2023/07/23 10:38:41;;;;;;;2.87;2.67;;;32.40;48.70;;;;;;5033337;28;20427;-68
2023/07/23 10:41:07;;;;;;;3.90;3.60;;;32.80;47.50;;;;;;5033533;28;20635;-68
2023/07/23 10:43:41;;;;;;;2.97;2.77;;;32.40;47.40;;;;;;5033425;28;20218;-68
2023/07/23 10:46:12;;;;;;;2.60;2.40;;;33.00;47.00;;;;;;5033367;28;20224;-69
2023/07/23 10:48:51;;;;;;;3.00;2.80;;;33.00;46.60;;;;;;5032602;28;20413;-68
2023/07/23 10:51:18;;;;;;;2.87;2.67;;;34.00;44.60;;;;;;5033426;28;20439;-68
2023/07/23 10:54:02;;;;;;;3.37;3.07;;;33.60;43.30;;;;;;5033168;28;20444;-68
2023/07/23 10:56:40;;;;;;;3.10;2.90;;;33.30;42.90;;;;;;5033199;28;20416;-68
2023/07/23 10:59:07;;;;;;;3.27;2.97;;;31.50;45.40;;;;;;5032978;28;20432;-68
2023/07/23 11:01:35;;;;;;;3.43;3.20;;;30.30;47.10;;;;;;5033140;28;20415;-68
2023/07/23 11:04:13;;;;;;;3.33;2.90;;;30.10;47.90;;;;;;5032667;28;20870;-68
2023/07/23 11:06:53;;;;;;;4.87;2.93;;;30.10;48.60;;;;;;5032603;28;20432;-68
2023/07/23 11:09:30;;;;;;;2.87;2.67;;;31.50;47.50;;;;;;5032754;28;20443;-68
2023/07/23 11:11:56;;;;;;;2.80;2.60;;;32.40;45.40;;;;;;5032887;28;20830;-68
2023/07/23 11:14:24;;;;;;;3.70;3.10;;;32.70;44.50;;;;;;5033193;28;20814;-68
2023/07/23 11:16:52;;;;;;;3.30;3.03;;;32.00;44.70;;;;;;5032836;28;20503;-68
2023/07/23 11:19:19;;;;;;;3.10;2.90;;;31.10;45.00;;;;;;5032466;28;20444;-68
2023/07/23 11:21:46;;;;;;;4.20;3.90;;;30.70;45.90;;;;;;5032617;28;20441;-68
2023/07/23 11:24:12;;;;;;;3.27;3.00;;;30.40;46.10;;;;;;5032545;28;20984;-68
2023/07/23 11:26:37;;;;;;;3.30;3.10;;;30.50;46.40;;;;;;5032595;28;20417;-68
2023/07/23 11:29:06;;;;;;;4.07;3.27;;;31.10;46.30;;;;;;5032305;28;20166;-68
2023/07/23 11:31:33;;;;;;;3.50;3.10;;;32.40;44.90;;;;;;5032559;28;20634;-68
2023/07/23 11:34:00;;;;;;;3.50;3.20;;;32.90;43.90;;;;;;5032415;28;20825;-68
2023/07/23 11:36:27;;;;;;;3.20;3.00;;;33.40;43.30;;;;;;5032501;28;20428;-68
2023/07/23 11:38:54;;;;;;;3.20;3.00;;;33.60;42.00;;;;;;5032081;28;20934;-68
2023/07/23 11:41:26;;;;;;;3.20;3.00;;;33.70;40.70;;;;;;5032321;28;20929;-68
2023/07/23 11:43:51;;;;;;;3.70;3.40;;;35.40;39.90;;;;;;5032208;28;20494;-68
2023/07/23 11:46:18;;;;;;;3.40;3.20;;;35.90;37.80;;;;;;5032197;28;20889;-68
2023/07/23 11:48:44;;;;;;;3.23;3.03;;;35.70;37.00;;;;;;5031522;28;20174;-68
2023/07/23 11:51:09;;;;;;;3.70;3.40;;;36.20;37.50;;;;;;5032279;28;20779;-69
2023/07/23 11:53:38;;;;;;;4.17;3.17;;;36.60;36.50;;;;;;5032073;28;20193;-68
2023/07/23 11:56:13;;;;;;;3.80;3.50;;;34.80;36.50;;;;;;5032173;28;20177;-68
2023/07/23 11:58:40;;;;;;;3.93;3.53;;;33.50;38.40;;;;;;5031762;28;20949;-68
2023/07/23 12:01:07;;;;;;;4.50;3.60;;;33.10;38.30;;;;;;5032046;28;20918;-68
2023/07/23 12:03:44;;;;;;;3.60;3.30;;;32.90;40.00;;;;;;5031928;28;20977;-68
2023/07/23 12:06:14;;;;;;;3.77;3.47;;;32.70;39.20;;;;;;5032152;28;20408;-68
2023/07/23 12:08:42;;;;;;;3.57;3.27;;;32.20;39.30;;;;;;5031710;28;20428;-68
2023/07/23 12:11:09;;;;;;;3.70;3.40;;;31.90;39.80;;;;;;5031999;28;20500;-68
2023/07/23 12:13:44;;;;;;;3.67;3.43;;;31.80;40.10;;;;;;5031811;28;21033;-68
2023/07/23 12:16:29;;;;;;;4.43;3.20;;;31.70;39.50;;;;;;5031589;28;20500;-68
2023/07/23 12:19:18;;;;;;;3.80;3.50;;;31.50;40.20;;;;;;5031726;28;20617;-68
2023/07/23 12:21:46;;;;;;;4.37;3.63;;;31.50;40.50;;;;;;5031724;28;20425;-68
2023/07/23 12:24:29;;;;;;;3.47;3.17;;;31.00;40.70;;;;;;5031787;28;20459;-68
2023/07/23 12:27:00;;;;;;;6.23;4.33;;;30.70;41.40;;;;;;5032035;28;20417;-68
2023/07/23 12:29:27;;;;;;;4.13;3.83;;;30.30;41.70;;;;;;5031532;28;20421;-68
2023/07/23 12:32:11;;;;;;;3.87;3.57;;;29.70;42.10;;;;;;5031664;28;20416;-69
2023/07/23 12:34:42;;;;;;;3.97;3.57;;;29.20;42.50;;;;;;5031826;28;20855;-68
2023/07/23 12:37:08;;;;;;;3.07;2.87;;;28.70;43.50;;;;;;5031598;28;20784;-68
2023/07/23 12:39:33;;;;;;;3.50;3.20;;;28.40;44.00;;;;;;5031412;28;20413;-68
2023/07/23 12:41:59;;;;;;;3.63;3.43;;;28.10;44.70;;;;;;5031540;28;20419;-68
2023/07/23 12:44:25;;;;;;;9.83;4.20;;;28.00;45.50;;;;;;5031579;28;20186;-68
2023/07/23 12:46:51;;;;;;;4.70;4.17;;;28.00;45.50;;;;;;5031938;28;20667;-68
2023/07/23 12:49:17;;;;;;;3.60;3.33;;;27.80;45.90;;;;;;5031447;28;20413;-68